No particular awareness of the weather is required.    There are no Weather-warnings
 Banner
iom-flag.gif  iom-flag.gif


Ballaugh webcam more information Ballaugh webcam


Thunder radar more information blitzortung!


Rain radar more information rain snow radar


Visit our other weather sites:

Template documentation
and downloads

And another site



Nearby METAR Reports

   
EGNS - Isle Of Man/Rona, United Kingdom
Distance from station: SSW 16 mi
Updated: 23-01-2020 07:20
Fog, Overcast  
Fog, Overcast  
   Wind: WNW 3.5 mph
Wind: WNW 3.5 mph
Temperature: 5°C
Wind Chill: 4°C
Dew Point: 5°C
Humidity: 100%
Barometer: 1032 hPa
Clouds: Overcast
Visibility: 0 mi
Cloud details: Overcast 0 ft
EGNS 230720Z 29003KT 0200 FG OVC000 05/05 Q1032 TEMPO 0600
EGAC - Belfast Harbour, United Kingdom
Distance from station: WNW 57 mi
Updated: 23-01-2020 07:20
Mist, Overcast  
Mist, Overcast  
   Wind: SSW 6.9 mph
Wind: SSW 6.9 mph
Temperature: 5°C
Wind Chill: 2°C
Dew Point: 5°C
Humidity: 100%
Barometer: 1033 hPa
Clouds: Overcast
Visibility: 1 mi
Cloud details: Overcast 200 ft
EGAC 230720Z AUTO 20006KT 1400 R22/1200 BR OVC002/// 05/05 Q1033
EGAA - Belfast/Aldergro, United Kingdom
Distance from station: WNW 71 mi
Updated: 23-01-2020 07:20
Fog, Overcast  
Fog, Overcast  
   Wind: SSW 6.9 mph
Wind: SSW 6.9 mph
Temperature: 6°C
Wind Chill: 4°C
Dew Point: 6°C
Humidity: 100%
Barometer: 1032 hPa
Clouds: Overcast
Visibility: 0 mi
Cloud details: Overcast 100 ft
EGAA 230720Z 20006KT 0400 R25/0500 R07/0450 FG OVC001 06/06 Q1032
EGNH - Blackpool Airpor, United Kingdom
Distance from station: ESE 73 mi
Updated: 23-01-2020 07:20
Light Drizzle, Mist, Overcast  
Light Drizzle, Mist, Overcast  
   Wind: South 4.6 mph
Wind: South 4.6 mph
Temperature: 7°C
Wind Chill: 6°C
Dew Point: 7°C
Humidity: 100%
Barometer: 1033 hPa
Clouds: Overcast
Visibility: 2 mi
Cloud details: Overcast 600 ft
EGNH 230720Z 18004KT 2500 -DZ BR OVC006 07/07 Q1033
EGOV - Valley Raf, United Kingdom
Distance from station: S 73 mi
Updated: 23-01-2020 07:20
Fog, Few Clouds  
Fog, Few Clouds  
   Wind: ESE 4.6 mph
Wind: ESE 4.6 mph
Temperature: 3°C
Wind Chill: 1°C
Dew Point: 3°C
Humidity: 100%
Barometer: 1033 hPa
Clouds: Few Clouds
Visibility: 0 mi
Cloud details: Few Clouds 200 ft
EGOV 230720Z 11004KT 0700 FG FEW002 03/03 Q1033 TEMPO 4000 BR SCT002 RMK RED TEMPO AMB
EGPK - Prestwick(Civ/Na, United Kingdom
Distance from station: N 82 mi
Updated: 23-01-2020 07:20
Mostly Cloudy  
Mostly Cloudy  
   Wind: SSW 12.7 mph
Wind: SSW 12.7 mph
Temperature: 8°C
Wind Chill: 5°C
Dew Point: 8°C
Humidity: 100%
Barometer: 1031 hPa
Clouds: Mostly Cloudy
Visibility: 4 mi
Cloud details: Partly Cloudy 400 ft,
Mostly Cloudy 900 ft
EGPK 230720Z 21011KT 7000 SCT004 BKN009 08/08 Q1031
EIDW - Dublin Airport, Ireland
Distance from station: SW 93 mi
Updated: 23-01-2020 07:30
Fog, Partly Cloudy  
Fog, Partly Cloudy  
   Wind: West 8.1 mph
Wind: West 8.1 mph
Temperature: 6°C
Wind Chill: 3°C
Dew Point: 6°C
Humidity: 100%
Barometer: 1033 hPa
Clouds: Partly Cloudy
Visibility: 0 mi
Cloud details: Few Clouds 100 ft,
Partly Cloudy 500 ft
EIDW 230730Z 27007KT 0400 R16/0550N R28/0550N R10/0450V0600N FG FEW001 SCT005 06/06 Q1033 TEMPO 0800
EGGP - Liverpool Airpor, United Kingdom
Distance from station: SE 98 mi
Updated: 23-01-2020 07:20
Mist, Overcast  
Mist, Overcast  
   Wind: varies 2.3 mph
Wind: varies 2.3 mph
Temperature: 7°C
Dew Point: 7°C
Humidity: 100%
Barometer: 1033 hPa
Clouds: Overcast
Visibility: 2 mi
Cloud details: Overcast 300 ft
EGGP 230720Z VRB02KT 3500 BR OVC003 07/07 Q1033
EGPF - Glasgow Airport, United Kingdom
Distance from station: N 107 mi
Updated: 23-01-2020 07:20
Overcast  
Overcast  
   Wind: WSW 12.7 mph
Wind: WSW 12.7 mph
Temperature: 9°C
Wind Chill: 6°C
Dew Point: 6°C
Humidity: 82%
Barometer: 1030 hPa
Clouds: Overcast
Visibility: More than 6 mi
Cloud details: Overcast 2800 ft
EGPF 230720Z AUTO 25011KT 9999 OVC028 09/06 Q1030
EGCC - Manchester Intl, United Kingdom
Distance from station: SE 114 mi
Updated: 23-01-2020 07:20
Fog, Overcast  
Fog, Overcast  
   Wind: varies 2.3 mph
Wind: varies 2.3 mph
Temperature: 6°C
Dew Point: 6°C
Humidity: 100%
Barometer: 1033 hPa
Clouds: Overcast
Visibility: 1 mi
Cloud details: Overcast 200 ft
EGCC 230720Z AUTO VRB02KT 0900 R23R/P1500 R23L/P1500 FG OVC002 06/06 Q1033
EGNM - Leeds And Bradfo, United Kingdom
Distance from station: ESE 122 mi
Updated: 23-01-2020 07:20
Partly Cloudy  
Partly Cloudy  
   Wind: West 11.5 mph
Wind: West 11.5 mph
Temperature: 6°C
Wind Chill: 3°C
Dew Point: 6°C
Humidity: 100%
Barometer: 1032 hPa
Clouds: Partly Cloudy
Visibility: 4 mi
Cloud details: Partly Cloudy 300 ft,
Partly Cloudy 600 ft
EGNM 230720Z 26010KT 7000 SCT003 SCT006 06/06 Q1032
 

Script developed by  Saratoga-weather.org Adapted for the template by  Weerstation Leuven

You find our weather info also at:

UK Metoffice

WeatherCloud

WeatherlinkIP

Equipment we use:

Weather-station
Davis VP2

Weather-program
Weather Display

Weather-server
My Computer

Provider
Fasthosts

Davis VP2

Weather Display

My Computer

Fasthosts

 Banner1
iom-flag.gif  iom-flag.gif
Flag Counter 

Hits since site created in 2003